Virginia, Queensland

5:03 PM AEST on February 11, 2016 (GMT +1000)
Kedron | | Change Station
CLOSE
Current Station
Personal Weather Station
Location: Kedron, QUEENSLAND
Elevation: 112 ft
Nearby Weather Stations

Elev 112 ft 27.40 °S, 153.03 °E | Updated 15 minutes ago

Scattered Clouds
Scattered Clouds
82.8 °F
Feels Like 84 °F
N
6.3
Wind Variable Wind from NNW

Today
High -- | Low -- °F
--% Chance of Precip.
Yesterday
High -- | Low -- °F
Precip. -- in
Pressure 29.86 in
Visibility 6.2 miles
Clouds Few 3000 ft
Scattered Clouds 28000 ft
Heat Index 84 °F
Dew Point 63 °F
Humidity 51%
Rainfall 0.00 in
Snow Depth Not available.
5:27 AM 6:35 PM
Waxing Crescent, 10% visible
METAR YBBN 110630Z 12012G22KT 9999 FEW030 SCT280 27/18 Q1011 NOSIG
Pressure 29.86 in
Visibility 6.2 miles
Clouds Few 3000 ft
Scattered Clouds 28000 ft
Heat Index 84 °F
Dew Point 63 °F
Humidity 51%
Rainfall 0.00 in
Snow Depth Not available.
5:27 AM 6:35 PM
Waxing Crescent, 10% visible
METAR YBBN 110630Z 12012G22KT 9999 FEW030 SCT280 27/18 Q1011 NOSIG

10-Day Weather Forecast

Almanac

Astronomy

Feb. 11, 2016 Rise Set
Actual Time
Civil Twilight
Nautical Twilight
Astronomical Twilight
Moon
Length of Visible Light
Length of Day
Tomorrow will be .
, % of the Moon is Illuminated

Today's Extremes

Country Highs Country Lows

Community

WunderPhotos

Upload Photos

1,892,028 photos uploaded!

WunderBlog® & News

Nearby

Air Quality

  Air Quality AQ Index Pollutant
Not available.

Snow Depth

Station Depth Elevation

Earthquake Activity

City Distance Mag. Time & Date
Minimum magnitude displayed is 2.5.

Coastal Water Temperatures

Place Temperature

Stations

Nearby Weather Stations

Station Location Temp. Windchill Dew Point Humidity Wind Precip. Elev Updated Type